createdAt,value
2022-09-18T00:02:00.199Z,11.20
2022-09-18T00:07:03.570Z,11.10
2022-09-18T00:12:07.270Z,11.10
2022-09-18T00:17:10.719Z,11.10
2022-09-18T00:22:14.557Z,11.10
2022-09-18T00:27:18.588Z,11.10
2022-09-18T00:32:22.028Z,11.00
2022-09-18T00:37:25.672Z,10.90
2022-09-18T00:42:29.391Z,10.90
2022-09-18T00:47:42.148Z,10.80
2022-09-18T00:52:54.436Z,10.80
2022-09-18T00:57:59.729Z,10.70
2022-09-18T01:03:03.729Z,10.60
2022-09-18T01:08:23.024Z,10.60
2022-09-18T01:13:31.276Z,10.50
2022-09-18T01:18:57.570Z,10.40
2022-09-18T01:24:33.660Z,10.40
2022-09-18T01:30:02.408Z,10.30
2022-09-18T01:35:39.442Z,10.30
2022-09-18T01:40:50.653Z,10.20
2022-09-18T01:45:56.864Z,10.20
2022-09-18T01:51:15.232Z,10.20
2022-09-18T01:56:34.569Z,10.10
2022-09-18T02:01:39.522Z,10.00
2022-09-18T02:07:09.510Z,10.00
2022-09-18T02:12:19.210Z,9.90
2022-09-18T02:17:39.810Z,9.90
2022-09-18T02:22:45.631Z,9.90
2022-09-18T02:27:50.888Z,9.90
2022-09-18T02:32:56.453Z,9.80
2022-09-18T02:38:12.289Z,9.80
2022-09-18T02:43:36.952Z,9.80
2022-09-18T02:48:59.550Z,9.80
2022-09-18T02:54:47.436Z,9.80
2022-09-18T02:59:54.950Z,9.70
2022-09-18T03:04:58.713Z,9.70
2022-09-18T03:10:03.201Z,9.70
2022-09-18T03:15:07.701Z,9.70
2022-09-18T03:20:11.241Z,9.70
2022-09-18T03:25:17.923Z,9.70
2022-09-18T03:30:21.547Z,9.60
2022-09-18T03:35:25.381Z,9.60
2022-09-18T03:40:30.190Z,9.50
2022-09-18T03:45:34.422Z,9.50
2022-09-18T03:50:38.281Z,9.50
2022-09-18T03:55:42.609Z,9.50
2022-09-18T04:00:46.262Z,9.40
2022-09-18T04:05:51.278Z,9.40
2022-09-18T04:10:54.885Z,9.40
2022-09-18T04:16:00.580Z,9.40
2022-09-18T04:21:04.101Z,9.40
2022-09-18T04:26:11.324Z,9.30
2022-09-18T04:31:15.370Z,9.30
2022-09-18T04:36:19.182Z,9.30
2022-09-18T04:41:22.561Z,9.30
2022-09-18T04:46:27.216Z,9.30
2022-09-18T04:51:31.781Z,9.30
2022-09-18T04:56:36.402Z,9.20
2022-09-18T05:01:40.696Z,9.20
2022-09-18T05:06:45.401Z,9.20
2022-09-18T05:11:49.514Z,9.20
2022-09-18T05:16:53.579Z,9.20
2022-09-18T05:21:57.244Z,9.20
2022-09-18T05:27:01.262Z,9.20
2022-09-18T05:32:05.162Z,9.30
2022-09-18T05:37:08.611Z,9.30
2022-09-18T05:42:12.167Z,9.40
2022-09-18T05:47:15.827Z,9.50
2022-09-18T05:52:19.351Z,9.50
2022-09-18T05:57:22.921Z,9.50
2022-09-18T06:02:26.462Z,9.50
2022-09-18T06:07:30.039Z,9.60
2022-09-18T06:12:33.721Z,9.60
2022-09-18T06:17:38.030Z,9.70
2022-09-18T06:22:41.310Z,9.70
2022-09-18T06:27:45.482Z,9.80
2022-09-18T06:32:49.003Z,9.80
2022-09-18T06:37:52.802Z,9.80
2022-09-18T06:43:00.402Z,9.90
2022-09-18T06:48:05.581Z,10.00
2022-09-18T06:53:12.642Z,10.10
2022-09-18T06:58:18.130Z,10.20
2022-09-18T07:03:22.270Z,10.30
2022-09-18T07:08:26.062Z,10.40
2022-09-18T07:13:33.667Z,10.40
2022-09-18T07:18:37.721Z,10.40
2022-09-18T07:23:41.535Z,10.60
2022-09-18T07:28:46.519Z,10.70
2022-09-18T07:33:58.665Z,10.70
2022-09-18T07:39:04.472Z,10.90
2022-09-18T07:44:08.148Z,10.90
2022-09-18T07:49:15.265Z,11.00
2022-09-18T07:54:19.221Z,11.10
2022-09-18T07:59:23.563Z,11.30
2022-09-18T08:04:27.378Z,11.30
2022-09-18T08:09:31.453Z,11.30
2022-09-18T08:14:35.276Z,11.40
2022-09-18T08:19:39.062Z,11.40
2022-09-18T08:24:43.222Z,11.30
2022-09-18T08:29:46.771Z,11.20
2022-09-18T08:34:50.782Z,11.20
2022-09-18T08:39:54.806Z,11.20
2022-09-18T08:45:17.724Z,11.20
2022-09-18T08:50:26.782Z,11.30
2022-09-18T08:55:36.433Z,11.40
2022-09-18T09:00:47.230Z,11.50
2022-09-18T09:05:58.872Z,11.40
2022-09-18T09:11:21.184Z,11.40
2022-09-18T09:16:43.183Z,11.50
2022-09-18T09:22:08.045Z,11.50
2022-09-18T09:27:26.882Z,11.60
2022-09-18T09:32:45.564Z,11.70
2022-09-18T09:37:53.241Z,11.70
2022-09-18T09:43:05.521Z,11.80
2022-09-18T09:48:25.255Z,11.70
2022-09-18T09:53:29.209Z,11.80
2022-09-18T09:58:55.667Z,11.80
2022-09-18T10:04:07.574Z,11.80
2022-09-18T10:09:29.755Z,11.90
2022-09-18T10:14:37.288Z,12.00
2022-09-18T10:19:43.675Z,12.30
2022-09-18T10:25:29.637Z,12.40
2022-09-18T10:30:33.044Z,12.40
2022-09-18T10:35:44.750Z,12.40
2022-09-18T10:40:48.823Z,12.40
2022-09-18T10:45:59.721Z,12.40
2022-09-18T10:51:05.281Z,12.40
2022-09-18T10:56:20.973Z,12.30
2022-09-18T11:01:27.398Z,12.30
2022-09-18T11:06:35.221Z,12.30
2022-09-18T11:11:46.036Z,12.40
2022-09-18T11:16:56.829Z,12.40
2022-09-18T11:22:07.302Z,12.60
2022-09-18T11:27:22.376Z,13.00
2022-09-18T11:32:31.102Z,13.40
2022-09-18T11:37:43.942Z,13.80
2022-09-18T11:42:51.501Z,14.00
2022-09-18T11:48:14.604Z,14.10
2022-09-18T11:53:43.208Z,14.10
2022-09-18T11:58:52.945Z,14.30
2022-09-18T12:04:16.202Z,14.60
2022-09-18T12:09:44.731Z,14.70
2022-09-18T12:15:10.941Z,14.90
2022-09-18T12:20:40.896Z,15.00
2022-09-18T12:25:56.136Z,15.30
2022-09-18T12:31:12.108Z,15.50
2022-09-18T12:36:44.784Z,15.70
2022-09-18T12:42:04.931Z,15.50
2022-09-18T12:47:38.025Z,15.20
2022-09-18T12:53:23.780Z,15.00
2022-09-18T12:59:11.657Z,14.10
2022-09-18T13:04:45.253Z,13.00
2022-09-18T13:10:05.687Z,11.90
2022-09-18T13:15:20.283Z,11.60
2022-09-18T13:20:48.746Z,11.40
2022-09-18T13:25:55.148Z,11.20
2022-09-18T13:31:18.004Z,11.10
2022-09-18T13:36:44.938Z,11.10
2022-09-18T13:41:56.282Z,11.10
2022-09-18T13:47:12.789Z,11.00
2022-09-18T13:52:34.833Z,11.00
2022-09-18T13:57:38.785Z,11.10
2022-09-18T14:02:44.104Z,11.10
2022-09-18T14:07:58.983Z,11.10
2022-09-18T14:13:38.083Z,11.00
2022-09-18T14:19:05.502Z,11.00
2022-09-18T14:24:39.948Z,11.00
2022-09-18T14:29:43.778Z,11.00
2022-09-18T14:34:49.034Z,11.00
2022-09-18T14:39:56.035Z,11.00
2022-09-18T14:45:33.344Z,11.00
2022-09-18T14:50:39.143Z,11.00
2022-09-18T14:55:57.405Z,10.90
2022-09-18T15:01:06.832Z,10.90
2022-09-18T15:06:26.066Z,10.90
2022-09-18T15:11:52.569Z,10.90
2022-09-18T15:17:03.322Z,10.90
2022-09-18T15:22:06.637Z,10.90
2022-09-18T15:27:18.464Z,11.00
2022-09-18T15:32:30.130Z,11.00
2022-09-18T15:37:35.074Z,11.10
2022-09-18T15:42:52.435Z,11.10
2022-09-18T15:47:57.099Z,11.10
2022-09-18T15:53:06.681Z,11.10
2022-09-18T15:58:58.304Z,11.00
2022-09-18T16:04:25.640Z,10.90
2022-09-18T16:09:41.560Z,10.80
2022-09-18T16:14:47.465Z,10.70
2022-09-18T16:19:50.716Z,10.70
2022-09-18T16:24:57.247Z,10.60
2022-09-18T16:30:05.435Z,10.50
2022-09-18T16:35:13.495Z,10.50
2022-09-18T16:40:25.400Z,10.60
2022-09-18T16:45:30.636Z,10.60
2022-09-18T16:50:39.276Z,10.50
2022-09-18T16:55:47.777Z,10.60
2022-09-18T17:00:51.703Z,10.60
2022-09-18T17:05:58.995Z,10.70
2022-09-18T17:11:02.734Z,10.70
2022-09-18T17:16:07.794Z,10.70
2022-09-18T17:21:12.011Z,10.70
2022-09-18T17:26:16.938Z,10.70
2022-09-18T17:31:28.251Z,10.70
2022-09-18T17:36:33.342Z,10.60
2022-09-18T17:41:38.600Z,10.60
2022-09-18T17:46:43.195Z,10.60
2022-09-18T17:51:49.876Z,10.60
2022-09-18T17:56:53.662Z,10.60
2022-09-18T18:01:59.684Z,10.60
2022-09-18T18:07:06.757Z,10.60
2022-09-18T18:12:13.458Z,10.50
2022-09-18T18:17:20.978Z,10.50
2022-09-18T18:22:28.959Z,10.50
2022-09-18T18:27:34.416Z,10.60
2022-09-18T18:32:42.349Z,10.60
2022-09-18T18:37:47.977Z,10.60
2022-09-18T18:42:52.096Z,10.70
2022-09-18T18:47:58.667Z,10.70
2022-09-18T18:53:03.322Z,10.70
2022-09-18T18:58:14.757Z,10.70
2022-09-18T19:03:19.185Z,10.70
2022-09-18T19:08:23.756Z,10.70
2022-09-18T19:13:28.335Z,10.70
2022-09-18T19:18:31.996Z,10.70
2022-09-18T19:23:36.442Z,10.60
2022-09-18T19:28:43.555Z,10.60
2022-09-18T19:33:53.035Z,10.60
2022-09-18T19:39:07.695Z,10.50
2022-09-18T19:44:36.625Z,10.50
2022-09-18T19:49:40.079Z,10.40
2022-09-18T19:54:44.315Z,10.40
2022-09-18T19:59:48.156Z,10.50
2022-09-18T20:04:54.456Z,10.50
2022-09-18T20:10:02.816Z,10.50
2022-09-18T20:15:08.317Z,10.40
2022-09-18T20:20:16.456Z,10.40
2022-09-18T20:25:19.992Z,10.30
2022-09-18T20:30:23.417Z,10.30
2022-09-18T20:35:27.398Z,10.20
2022-09-18T20:40:31.838Z,10.20
2022-09-18T20:45:35.205Z,10.20
2022-09-18T20:50:39.568Z,10.20
2022-09-18T20:55:42.599Z,10.10
2022-09-18T21:00:48.585Z,10.10
2022-09-18T21:06:07.497Z,10.00
2022-09-18T21:11:16.983Z,10.00
2022-09-18T21:16:22.639Z,10.00
2022-09-18T21:21:27.987Z,9.90
2022-09-18T21:26:41.804Z,9.90
2022-09-18T21:31:47.208Z,9.80
2022-09-18T21:36:51.481Z,9.80
2022-09-18T21:41:54.862Z,9.80
2022-09-18T21:47:03.127Z,9.70
2022-09-18T21:52:08.084Z,9.70
2022-09-18T21:57:11.661Z,9.70
2022-09-18T22:08:32.442Z,9.60
2022-09-18T22:13:35.998Z,9.60
2022-09-18T22:18:41.023Z,9.60
2022-09-18T22:23:45.454Z,9.50
2022-09-18T22:28:50.822Z,9.50
2022-09-18T22:33:56.903Z,9.40
2022-09-18T22:39:00.724Z,9.40
2022-09-18T22:44:04.924Z,9.40
2022-09-18T22:49:09.742Z,9.30
2022-09-18T22:54:14.868Z,9.20
2022-09-18T22:59:20.577Z,9.20
2022-09-18T23:04:28.712Z,9.10
2022-09-18T23:09:32.444Z,9.10
2022-09-18T23:14:35.863Z,9.00
2022-09-18T23:19:39.523Z,8.90
2022-09-18T23:24:43.263Z,8.90
2022-09-18T23:29:46.592Z,8.80
2022-09-18T23:34:51.243Z,8.80
2022-09-18T23:39:54.496Z,8.70
2022-09-18T23:44:57.985Z,8.70
2022-09-18T23:50:01.453Z,8.60
2022-09-18T23:55:06.008Z,8.50
